createdAt,value
2023-03-10T00:03:23.150Z,7.50
2023-03-10T00:08:45.828Z,7.50
2023-03-10T00:14:07.421Z,7.50
2023-03-10T00:19:29.066Z,7.50
2023-03-10T00:24:50.569Z,7.50
2023-03-10T00:30:12.541Z,7.50
2023-03-10T00:35:34.502Z,7.50
2023-03-10T00:41:07.633Z,7.60
2023-03-10T00:46:30.402Z,7.70
2023-03-10T00:51:52.120Z,7.70
2023-03-10T00:57:13.903Z,7.80
2023-03-10T01:02:35.773Z,7.80
2023-03-10T01:07:57.485Z,7.80
2023-03-10T01:13:20.271Z,7.80
2023-03-10T01:18:44.183Z,7.80
2023-03-10T01:24:06.967Z,7.70
2023-03-10T01:29:28.967Z,7.80
2023-03-10T01:34:50.489Z,8.00
2023-03-10T01:40:16.645Z,8.20
2023-03-10T01:45:38.495Z,8.30
2023-03-10T01:51:00.331Z,8.50
2023-03-10T01:56:22.122Z,8.50
2023-03-10T02:01:44.099Z,8.60
2023-03-10T02:07:07.808Z,8.60
2023-03-10T02:12:29.422Z,8.70
2023-03-10T02:17:53.312Z,8.70
2023-03-10T02:23:22.504Z,8.80
2023-03-10T02:28:46.955Z,8.90
2023-03-10T02:34:09.032Z,8.80
2023-03-10T02:39:31.229Z,8.80
2023-03-10T02:44:55.716Z,8.80
2023-03-10T02:50:20.272Z,8.90
2023-03-10T02:55:41.956Z,8.90
2023-03-10T03:01:05.379Z,8.90
2023-03-10T03:06:31.026Z,8.90
2023-03-10T03:11:54.843Z,8.90
2023-03-10T03:17:16.517Z,8.90
2023-03-10T03:22:38.740Z,8.90
2023-03-10T03:28:00.362Z,9.00
2023-03-10T03:33:22.493Z,9.00
2023-03-10T03:38:44.432Z,9.00
2023-03-10T03:44:07.189Z,9.00
2023-03-10T03:49:30.270Z,9.00
2023-03-10T03:54:51.960Z,9.00
2023-03-10T04:00:22.484Z,9.00
2023-03-10T04:05:50.362Z,9.00
2023-03-10T04:11:13.954Z,9.10
2023-03-10T04:16:38.845Z,9.10
2023-03-10T04:22:01.532Z,9.10
2023-03-10T04:27:26.281Z,9.30
2023-03-10T04:32:49.839Z,9.30
2023-03-10T04:38:15.080Z,9.10
2023-03-10T04:43:37.448Z,9.20
2023-03-10T04:48:59.438Z,9.10
2023-03-10T04:54:21.016Z,9.00
2023-03-10T04:59:42.741Z,9.10
2023-03-10T05:05:05.277Z,9.10
2023-03-10T05:10:29.139Z,9.10
2023-03-10T05:15:50.843Z,9.10
2023-03-10T05:21:12.763Z,9.10
2023-03-10T05:26:35.276Z,9.10
2023-03-10T05:31:58.554Z,9.10
2023-03-10T05:37:25.329Z,9.20
2023-03-10T05:42:49.197Z,9.20
2023-03-10T05:48:12.222Z,9.20
2023-03-10T05:53:35.300Z,9.20
2023-03-10T05:58:58.676Z,9.20
2023-03-10T06:04:25.760Z,9.20
2023-03-10T06:09:47.574Z,9.10
2023-03-10T06:15:09.690Z,9.20
2023-03-10T06:20:31.172Z,9.20
2023-03-10T06:26:07.026Z,9.30
2023-03-10T06:31:28.850Z,9.20
2023-03-10T06:36:53.106Z,9.20
2023-03-10T06:42:14.838Z,9.20
2023-03-10T06:47:36.614Z,9.40
2023-03-10T06:52:58.033Z,9.40
2023-03-10T06:58:19.566Z,9.30
2023-03-10T07:03:43.361Z,9.40
2023-03-10T07:09:06.325Z,9.40
2023-03-10T07:14:28.329Z,9.50
2023-03-10T07:19:49.800Z,9.50
2023-03-10T07:25:12.146Z,9.50
2023-03-10T07:30:34.644Z,9.60
2023-03-10T07:35:56.578Z,9.70
2023-03-10T07:41:20.106Z,9.70
2023-03-10T07:46:41.972Z,9.80
2023-03-10T07:52:03.778Z,9.90
2023-03-10T07:57:25.476Z,10.10
2023-03-10T08:02:47.117Z,10.20
2023-03-10T08:08:09.046Z,10.40
2023-03-10T08:13:30.979Z,10.50
2023-03-10T08:18:54.877Z,10.70
2023-03-10T08:24:16.678Z,10.60
2023-03-10T08:29:38.265Z,10.50
2023-03-10T08:35:00.209Z,10.60
2023-03-10T08:40:22.027Z,10.50
2023-03-10T08:45:43.948Z,10.50
2023-03-10T08:51:07.292Z,10.40
2023-03-10T08:56:29.451Z,10.40
2023-03-10T09:01:51.208Z,10.50
2023-03-10T09:07:12.695Z,10.50
2023-03-10T09:12:37.708Z,10.50
2023-03-10T09:18:01.591Z,10.70
2023-03-10T09:23:23.284Z,11.10
2023-03-10T09:28:45.065Z,11.20
2023-03-10T09:34:08.373Z,11.40
2023-03-10T09:39:30.243Z,11.50
2023-03-10T09:45:06.317Z,11.60
2023-03-10T09:50:44.842Z,11.60
2023-03-10T09:56:19.154Z,11.80
2023-03-10T10:01:44.508Z,11.80
2023-03-10T10:07:16.111Z,11.70
2023-03-10T10:12:37.749Z,11.60
2023-03-10T10:18:25.558Z,11.90
2023-03-10T10:23:53.106Z,12.10
2023-03-10T10:29:17.892Z,12.30
2023-03-10T10:34:47.199Z,12.50
2023-03-10T10:40:27.243Z,12.60
2023-03-10T10:46:06.966Z,12.60
2023-03-10T10:51:29.711Z,12.60
2023-03-10T10:56:58.681Z,12.50
2023-03-10T11:02:31.990Z,13.00
2023-03-10T11:07:53.853Z,13.00
2023-03-10T11:13:29.483Z,12.80
2023-03-10T11:19:00.293Z,12.70
2023-03-10T11:24:21.883Z,12.80
2023-03-10T11:29:55.515Z,12.70
2023-03-10T11:35:25.586Z,12.70
2023-03-10T11:41:00.009Z,13.10
2023-03-10T11:46:35.543Z,13.20
2023-03-10T11:52:05.572Z,13.90
2023-03-10T11:57:33.162Z,14.10
2023-03-10T12:03:19.815Z,14.00
2023-03-10T12:08:42.375Z,14.00
2023-03-10T12:14:04.273Z,14.20
2023-03-10T12:19:25.596Z,14.60
2023-03-10T12:24:48.299Z,14.70
2023-03-10T12:30:48.954Z,14.90
2023-03-10T12:36:15.421Z,14.70
2023-03-10T12:42:14.808Z,14.60
2023-03-10T12:48:00.300Z,14.70
2023-03-10T12:53:46.229Z,14.60
2023-03-10T12:59:22.330Z,14.90
2023-03-10T13:04:44.588Z,15.00
2023-03-10T13:10:07.069Z,14.60
2023-03-10T13:15:34.016Z,14.10
2023-03-10T13:20:55.578Z,13.30
2023-03-10T13:26:18.243Z,11.00
2023-03-10T13:31:40.278Z,9.70
2023-03-10T13:37:08.248Z,8.90
2023-03-10T13:42:43.432Z,8.70
2023-03-10T13:48:06.430Z,8.60
2023-03-10T13:53:28.391Z,8.30
2023-03-10T13:58:51.929Z,8.20
2023-03-10T14:04:18.798Z,8.40
2023-03-10T14:09:41.044Z,8.40
2023-03-10T14:15:20.691Z,8.80
2023-03-10T14:20:44.753Z,9.40
2023-03-10T14:26:15.167Z,9.70
2023-03-10T14:31:36.584Z,10.00
2023-03-10T14:36:58.338Z,10.30
2023-03-10T14:42:30.867Z,10.50
2023-03-10T14:47:53.874Z,10.80
2023-03-10T14:53:18.409Z,11.00
2023-03-10T14:58:54.288Z,10.90
2023-03-10T15:04:16.720Z,10.60
2023-03-10T15:09:38.454Z,10.00
2023-03-10T15:15:00.166Z,10.10
2023-03-10T15:20:24.550Z,9.80
2023-03-10T15:25:46.718Z,9.70
2023-03-10T15:31:08.384Z,9.70
2023-03-10T15:36:30.049Z,9.80
2023-03-10T15:41:51.778Z,10.10
2023-03-10T15:47:13.424Z,10.50
2023-03-10T15:52:35.027Z,10.70
2023-03-10T15:57:57.858Z,10.50
2023-03-10T16:03:19.624Z,10.10
2023-03-10T16:08:41.969Z,9.90
2023-03-10T16:14:03.906Z,9.90
2023-03-10T16:19:25.999Z,9.80
2023-03-10T16:24:47.767Z,9.60
2023-03-10T16:30:10.745Z,9.40
2023-03-10T16:35:32.609Z,9.00
2023-03-10T16:40:54.620Z,9.00
2023-03-10T16:46:25.724Z,8.70
2023-03-10T16:51:48.640Z,8.60
2023-03-10T16:57:12.381Z,8.50
2023-03-10T17:02:34.364Z,8.30
2023-03-10T17:08:02.478Z,8.10
2023-03-10T17:13:24.103Z,8.10
2023-03-10T17:18:46.195Z,8.10
2023-03-10T17:24:09.376Z,8.00
2023-03-10T17:29:31.485Z,7.90
2023-03-10T17:34:53.855Z,8.00
2023-03-10T17:40:17.347Z,7.80
2023-03-10T17:45:38.910Z,8.00
2023-03-10T17:51:01.260Z,8.00
2023-03-10T17:56:23.562Z,8.00
2023-03-10T18:01:46.370Z,7.90
2023-03-10T18:07:08.035Z,7.90
2023-03-10T18:12:29.573Z,8.00
2023-03-10T18:17:51.197Z,8.00
2023-03-10T18:23:12.797Z,8.00
2023-03-10T18:28:35.118Z,8.00
2023-03-10T18:33:56.911Z,8.00
2023-03-10T18:39:18.433Z,8.00
2023-03-10T18:44:40.454Z,7.90
2023-03-10T18:50:01.870Z,7.80
2023-03-10T18:55:23.432Z,7.60
2023-03-10T19:00:45.217Z,7.60
2023-03-10T19:06:07.849Z,7.50
2023-03-10T19:11:37.175Z,7.30
2023-03-10T19:16:59.093Z,7.30
2023-03-10T19:22:20.796Z,7.30
2023-03-10T19:27:42.348Z,7.30
2023-03-10T19:33:04.278Z,7.20
2023-03-10T19:38:27.570Z,7.20
2023-03-10T19:43:50.770Z,7.00
2023-03-10T19:49:12.260Z,7.00
2023-03-10T19:54:34.104Z,7.00
2023-03-10T19:59:55.463Z,6.70
2023-03-10T20:05:17.273Z,6.60
2023-03-10T20:10:38.942Z,6.40
2023-03-10T20:16:00.653Z,6.00
2023-03-10T20:21:22.407Z,5.80
2023-03-10T20:26:44.513Z,5.80
2023-03-10T20:32:07.954Z,5.60
2023-03-10T20:37:29.619Z,5.50
2023-03-10T20:42:52.861Z,5.40
2023-03-10T20:48:14.415Z,5.40
2023-03-10T20:53:39.234Z,5.30
2023-03-10T20:59:01.932Z,5.30
2023-03-10T21:04:23.712Z,5.30
2023-03-10T21:09:45.604Z,5.30
2023-03-10T21:15:08.551Z,5.20
2023-03-10T21:20:29.964Z,5.30
2023-03-10T21:25:51.583Z,5.20
2023-03-10T21:31:15.274Z,5.20
2023-03-10T21:36:36.869Z,5.20
2023-03-10T21:41:58.444Z,5.10
2023-03-10T21:47:21.503Z,5.00
2023-03-10T21:52:43.429Z,4.90
2023-03-10T21:58:05.777Z,4.80
2023-03-10T22:03:27.668Z,4.60
2023-03-10T22:08:49.526Z,4.40
2023-03-10T22:14:11.907Z,4.40
2023-03-10T22:19:34.082Z,4.40
2023-03-10T22:24:55.586Z,4.30
2023-03-10T22:30:17.412Z,4.30
2023-03-10T22:35:39.708Z,4.30
2023-03-10T22:41:01.570Z,4.20
2023-03-10T22:46:23.845Z,4.10
2023-03-10T22:51:45.682Z,3.90
2023-03-10T22:57:07.351Z,3.40
2023-03-10T23:02:28.736Z,3.10
2023-03-10T23:07:50.523Z,2.10
2023-03-10T23:13:18.669Z,1.70
2023-03-10T23:18:40.706Z,1.30
2023-03-10T23:24:02.456Z,0.80
2023-03-10T23:29:24.029Z,0.60
2023-03-10T23:34:45.623Z,0.60
2023-03-10T23:40:11.781Z,0.40
2023-03-10T23:45:35.412Z,0.30
2023-03-10T23:50:57.543Z,0.20
2023-03-10T23:56:19.248Z,0.10
